Weather Models
Both GFS & NAM
00z 06z 12z 18z
24hr Precip
00z 06z 12z 18z
36hr Simulated radar
00z 06z 12z 18z
SKEWT Soundings
00z 12z
Current Conditions (Updated 8:49pm on 11/18/18)
Temperature
 46°
-0.52
52°  
41°  
0
10
20
30
40
50
60
70
80
90
100
Dew Point
38°
43°  
33°  
-20
-10
0
10
20
30
40
50
60
70
80
Wind Chill
46°
52°  
38°  
-20
-10
0
10
20
30
40
50
60
70
80
Wind Chill
Humidity
73%
75% 
71% 
0
10
20
30
40
50
60
70
80
90
100
Barometer
30.25
   Steady
30.40  
30.25  
28.00
28.30
28.60
28.90
29.20
29.50
29.80
30.10
30.40
30.70
31.00
Temperature
Dew Point
Humidity
Pressure
Wind
0mph
  S
Daily Rain
.00
.05
.10
.15
.20
.25
.30
.35
.40
.45
.50
Rain Today
 0.00" 
Month Rain
0.00
1.00
2.00
3.00
4.00
5.00
6.00
7.00
8.00
9.00
10.00
Month Rain
 5.99" 
Year Rain
0.00
7.50
15.00
22.50
30.00
37.50
45.00
52.50
60.00
67.50
75.00
Year Rain
 53.50" 
Sun & Moon Data
Sunrise 6:50am
Sunset 4:42pm
Moonrise 2:36pm
Moonset 1:41am
Moon % 77%
Other Rain Data
Past Hour 0.00 Past 24 Hours 0.00
Past 3 Hours 0.00 Past 7 Days 2.63
Past 6 Hours 0.00
Cloud Height
2036


Current Front Map
Current Satellite map
7 Day Forecast
NWS Forecast for Philadelphia PA
National Weather Service Forecast for: Philadelphia PA
Issued by: National Weather Service Philadelphia, PA
Updated: 6:42 pm EST Nov 18, 2018

Philadelphia
 
Tonight

Tonight: Patchy fog after 4am.  Otherwise, mostly cloudy, with a low around 38. Southeast wind 3 to 5 mph.
Mostly Cloudy
then Patchy
Fog
Monday

Monday: Patchy fog before 7am.  Otherwise, mostly cloudy, with a high near 49. Light west wind.
Patchy Fog
then Mostly
Cloudy
Monday
Night
Monday Night: Rain likely.  Cloudy, with a low around 40. Calm wind.  Chance of precipitation is 70%. New precipitation amounts of less than a tenth of an inch possible.
Rain Likely

Tuesday

Tuesday: A chance of rain, mainly before 1pm.  Cloudy, then gradually becoming mostly sunny, with a high near 49. Northwest wind 3 to 7 mph.  Chance of precipitation is 30%. New precipitation amounts of less than a tenth of an inch possible.
Chance Rain

Tuesday
Night
Tuesday Night: Partly cloudy, with a low around 30. Northwest wind 5 to 8 mph becoming calm  after midnight.
Partly Cloudy

Wednesday

Wednesday: Sunny, with a high near 43.
Sunny

Wednesday
Night
Wednesday Night: Mostly clear, with a low around 24.
Mostly Clear

Thanksgiving
Day
Thanksgiving Day: Sunny, with a high near 31.
Sunny

Thursday
Night
Thursday Night: Mostly clear, with a low around 20.
Mostly Clear

Lo 38 °F Hi 49 °F Lo 40 °F Hi 49 °F Lo 30 °F Hi 43 °F Lo 24 °F Hi 31 °F Lo 20 °F

 

Tonight
 
Patchy fog after 4am. Otherwise, mostly cloudy, with a low around 38. Southeast wind 3 to 5 mph.
Monday
 
Patchy fog before 7am. Otherwise, mostly cloudy, with a high near 49. Light west wind.
Monday Night
 
Rain likely. Cloudy, with a low around 40. Calm wind. Chance of precipitation is 70%. New precipitation amounts of less than a tenth of an inch possible.
Tuesday
 
A chance of rain, mainly before 1pm. Cloudy, then gradually becoming mostly sunny, with a high near 49. Northwest wind 3 to 7 mph. Chance of precipitation is 30%. New precipitation amounts of less than a tenth of an inch possible.
Tuesday Night
 
Partly cloudy, with a low around 30. Northwest wind 5 to 8 mph becoming calm after midnight.
Wednesday
 
Sunny, with a high near 43.
Wednesday Night
 
Mostly clear, with a low around 24.
Thanksgiving Day
 
Sunny, with a high near 31.
Thursday Night
 
Mostly clear, with a low around 20.
Friday
 
Sunny, with a high near 38.
Friday Night
 
Partly cloudy, with a low around 28.
Saturday
 
A chance of showers. Mostly cloudy, with a high near 50. Chance of precipitation is 30%.
Saturday Night
 
A chance of showers. Mostly cloudy, with a low around 41. Chance of precipitation is 50%.
Sunday
 
Showers likely. Mostly cloudy, with a high near 52. Chance of precipitation is 70%.

 

Forecast from NOAA-NWS for Philadelphia PA.

Area Weather Current Conditions
Nearby METAR Reports

KPHL - Philadelphia, Pennsylvania
Updated: Sun, 18-Nov-2018 7:54pm EST
Clear
Clear
 Wind from calm
Wind: Calm
Temperature: 39°F , 4°C
Dew Point: 36°F , 2°C
Humidity: 87%
Barometer: 30.25 inHg , 1024.4 hPa
Clouds: Clear
Visibility: 10 miles , 16 km
2018/11/19 00:54 KPHL 190054Z 00000KT 10SM CLR 04/02 A3025 RMK AO2 SLP243 T00440017 $
KMPO - Mt. Pocono, Pennsylvania
Updated: Sun, 18-Nov-2018 7:53pm EST
Overcast
Overcast
 Wind from E
Wind: E 3 mph , 6 km/h
Temperature: 30°F , -1°C
Dew Point: 25°F , -4°C
Humidity: 80%
Barometer: 30.17 inHg , 1021.7 hPa
Clouds: Overcast
Visibility: 10 miles , 16 km
Cloud details: Overcast 1800 ft
2018/11/19 00:53 KMPO 190053Z AUTO 09003KT 10SM OVC018 M01/M04 A3017 RMK AO2 SLP240 T10061039
 
KACY - Atlantic City, New Jersey
Updated: Sun, 18-Nov-2018 7:54pm EST
Clear
Clear
 Wind from calm
Wind: Calm
Temperature: 37°F , 3°C
Dew Point: 36°F , 2°C
Humidity: 93%
Barometer: 30.25 inHg , 1024.4 hPa
Clouds: Clear
Visibility: 9 miles , 14 km
2018/11/19 00:54 KACY 190054Z 00000KT 9SM CLR 03/02 A3025 RMK AO2 SLP244 T00280022
KMIV - Millville, New Jersey
Updated: Sun, 18-Nov-2018 7:54pm EST
Clear
Clear
 Wind from calm
Wind: Calm
Temperature: 36°F , 2°C
Dew Point: 34°F , 1°C
Humidity: 93%
Barometer: 30.24 inHg , 1024 hPa
Clouds: Clear
Visibility: 10 miles , 16 km
2018/11/19 00:54 KMIV 190054Z AUTO 00000KT 10SM CLR 02/01 A3024 RMK AO2 SLP241 T00220011
 
KWWD - Wildwood, New Jersey
Updated: Sun, 18-Nov-2018 7:55pm EST
Clear
Clear
 Wind from SSE
Wind: SSE 3 mph , 6 km/h
Temperature: 43°F , 6°C
Dew Point: 39°F , 4°C
Humidity: 87%
Barometer: 30.25 inHg , 1024.4 hPa
Clouds: Clear
Visibility: 10 miles , 16 km
2018/11/19 00:55 KWWD 190055Z AUTO 15003KT 10SM CLR 06/04 A3025 RMK AO2 SLP246 T00610039
KDOV - Dover Afb, Delaware
Updated: Sun, 18-Nov-2018 7:56pm EST
Clear
Clear
 Wind from SE
Wind: SE 7 mph , 11 km/h
Temperature: 43°F , 6°C
Wind Chill: 39°F , 4°C
Dew Point: 39°F , 4°C
Humidity: 87%
Barometer: 30.23 inHg , 1023.7 hPa
Clouds: Clear
Visibility: 10 miles , 16 km
2018/11/19 00:56 KDOV 190056Z AUTO 14006KT 10SM CLR 06/04 A3023 RMK AO2 SLP240 T00590037 $
Severe Weather Map